Terminal Aerodrome Forecast
Issued by NWS

Home | Current Version | Previous Version | Text Only | Print | Product List | Glossary On
Versions: 1 2 3 4 5 6 7 8 9 10 11 12 13 14 15 16 17
000
FTUS43 KIND 301100
TAFBMG
TAF
KBMG 301123Z 3012/0112 00000KT 5SM BR FEW004
     FM301245 36007KT P6SM OVC007
      TEMPO 3013/3015 1 1/2SM BR OVC004
     FM301600 35007KT P6SM BKN020
     FM301800 35007KT P6SM SCT030 SCT250
     FM010100 01004KT P6SM BKN250
     FM010800 05003KT 4SM BR BKN250
      AMD LTD TO CLD VIS AND WIND TIL 301300=

USA.gov is the U.S. government's official web portal to all federal, state and local government web resources and services.